Time,TemperatureF,DewpointF,PressureIn,WindDirection,WindDirectionDegrees,WindSpeedMPH,WindSpeedGustMPH,Humidity,HourlyPrecipIn,Conditions,Clouds,dailyrainin,SoftwareType,DateUTC
2013-02-16 00:00:00,24.4,17.0,30.29,SE,135,0.0,0.0,73,0.00,,OVC049,0.00,VWS V14.01,2013-02-16 06:00:00,
2013-02-16 00:10:00,24.4,17.3,30.29,SE,135,0.0,0.0,74,0.00,,OVC049,0.00,VWS V14.01,2013-02-16 06:10:00,
2013-02-16 00:15:00,24.4,17.3,30.29,SE,135,0.0,0.0,74,0.00,,,0.00,VWS V14.01,2013-02-16 06:15:00,
2013-02-16 00:20:00,24.2,17.1,30.29,NW,315,0.0,0.0,74,0.00,,,0.00,VWS V14.01,2013-02-16 06:20:00,
2013-02-16 00:25:00,24.2,17.1,30.29,NNE,22,0.0,0.0,74,0.00,,,0.00,VWS V14.01,2013-02-16 06:25:00,
2013-02-16 00:30:00,24.2,17.1,30.30,NNE,22,0.0,0.0,74,0.00,,,0.00,VWS V14.01,2013-02-16 06:30:00,
2013-02-16 00:40:00,24.1,17.0,30.30,NNE,22,0.0,0.0,74,0.00,,,0.00,VWS V14.01,2013-02-16 06:40:00,
2013-02-16 00:45:00,24.1,17.0,30.30,NNE,22,0.0,0.0,74,0.00,,,0.00,VWS V14.01,2013-02-16 06:45:00,
2013-02-16 00:50:00,24.1,17.0,30.30,WNW,292,0.0,0.0,74,0.00,,,0.00,VWS V14.01,2013-02-16 06:50:00,
2013-02-16 01:00:00,24.1,17.3,30.30,West,270,0.0,0.0,75,0.00,,,0.00,VWS V14.01,2013-02-16 07:00:00,
2013-02-16 01:05:00,23.9,17.1,30.30,WNW,292,0.0,0.0,75,0.00,,,0.00,VWS V14.01,2013-02-16 07:05:00,
2013-02-16 01:10:00,23.9,17.1,30.30,WNW,292,0.0,0.0,75,0.00,,,0.00,VWS V14.01,2013-02-16 07:10:00,
2013-02-16 01:15:00,23.9,17.1,30.30,WNW,292,0.0,0.0,75,0.00,,,0.00,VWS V14.01,2013-02-16 07:15:00,
2013-02-16 01:20:00,23.9,17.1,30.30,WNW,292,0.0,0.0,75,0.00,,,0.00,VWS V14.01,2013-02-16 07:20:00,
2013-02-16 01:25:00,23.9,17.1,30.30,WNW,292,0.0,0.0,75,0.00,,,0.00,VWS V14.01,2013-02-16 07:25:00,
2013-02-16 01:30:00,23.7,17.0,30.30,NW,315,0.0,0.2,75,0.00,,,0.00,VWS V14.01,2013-02-16 07:30:00,
2013-02-16 01:35:00,23.5,16.8,30.29,NW,315,0.0,0.0,75,0.00,,,0.00,VWS V14.01,2013-02-16 07:35:00,
2013-02-16 01:40:00,23.5,16.8,30.30,NW,315,0.0,0.0,75,0.00,,,0.00,VWS V14.01,2013-02-16 07:40:00,
2013-02-16 01:45:00,23.3,16.6,30.30,NNW,338,0.0,0.0,75,0.00,,,0.00,VWS V14.01,2013-02-16 07:45:00,
2013-02-16 01:50:00,23.2,16.5,30.30,NNW,338,0.0,0.0,75,0.00,,,0.00,VWS V14.01,2013-02-16 07:50:00,
2013-02-16 01:55:00,23.0,16.3,30.30,NNW,338,0.0,0.0,75,0.00,,,0.00,VWS V14.01,2013-02-16 07:55:00,
2013-02-16 02:00:00,22.8,16.1,30.30,NNW,338,0.0,0.0,75,0.00,,,0.00,VWS V14.01,2013-02-16 08:00:00,
2013-02-16 02:10:00,22.6,16.2,30.30,NNW,338,0.0,0.0,76,0.00,,,0.00,VWS V14.01,2013-02-16 08:10:00,
2013-02-16 02:15:00,22.4,16.0,30.31,NNW,338,0.0,0.0,76,0.00,,,0.00,VWS V14.01,2013-02-16 08:15:00,
2013-02-16 02:20:00,22.3,15.9,30.30,North,0,0.0,0.0,76,0.00,,,0.00,VWS V14.01,2013-02-16 08:20:00,
2013-02-16 02:25:00,22.1,15.7,30.30,North,0,0.0,0.0,76,0.00,,,0.00,VWS V14.01,2013-02-16 08:25:00,
2013-02-16 02:30:00,21.9,15.5,30.30,North,0,0.0,0.0,76,0.00,,,0.00,VWS V14.01,2013-02-16 08:30:00,
2013-02-16 02:35:00,21.7,15.3,30.30,North,0,0.0,0.0,76,0.00,,,0.00,VWS V14.01,2013-02-16 08:35:00,
2013-02-16 02:40:00,21.5,15.1,30.30,North,0,0.0,0.0,76,0.00,,,0.00,VWS V14.01,2013-02-16 08:40:00,
2013-02-16 02:45:00,21.2,14.8,30.30,North,0,0.0,0.0,76,0.00,,,0.00,VWS V14.01,2013-02-16 08:45:00,
2013-02-16 02:50:00,21.0,14.6,30.30,North,0,0.0,0.0,76,0.00,,,0.00,VWS V14.01,2013-02-16 08:50:00,
2013-02-16 02:55:00,20.8,14.7,30.29,North,0,0.0,0.0,77,0.00,,,0.00,VWS V14.01,2013-02-16 08:55:00,
2013-02-16 03:00:00,20.6,14.6,30.29,North,0,0.0,0.0,77,0.00,,,0.00,VWS V14.01,2013-02-16 09:00:00,
2013-02-16 03:10:00,20.3,14.3,30.29,North,0,0.0,0.0,77,0.00,,,0.00,VWS V14.01,2013-02-16 09:10:00,
2013-02-16 03:15:00,20.1,14.1,30.29,North,0,0.0,0.0,77,0.00,,,0.00,VWS V14.01,2013-02-16 09:15:00,
2013-02-16 03:20:00,19.9,13.9,30.29,North,0,0.0,0.0,77,0.00,,,0.00,VWS V14.01,2013-02-16 09:20:00,
2013-02-16 03:25:00,19.7,13.7,30.29,North,0,0.0,0.0,77,0.00,,,0.00,VWS V14.01,2013-02-16 09:25:00,
2013-02-16 03:30:00,19.6,13.6,30.29,North,0,0.0,0.0,77,0.00,,,0.00,VWS V14.01,2013-02-16 09:30:00,
2013-02-16 03:35:00,19.6,13.6,30.29,North,0,0.0,0.0,77,0.00,,,0.00,VWS V14.01,2013-02-16 09:35:00,
2013-02-16 03:40:00,19.6,13.6,30.29,North,0,0.0,0.0,77,0.00,,,0.00,VWS V14.01,2013-02-16 09:40:00,
2013-02-16 03:45:00,19.4,13.4,30.29,NNW,338,0.0,0.0,77,0.00,,,0.00,VWS V14.01,2013-02-16 09:45:00,
2013-02-16 03:50:00,19.4,13.4,30.29,North,0,0.0,0.0,77,0.00,,,0.00,VWS V14.01,2013-02-16 09:50:00,
2013-02-16 03:55:00,19.4,13.7,30.30,North,0,0.0,0.0,78,0.00,,,0.00,VWS V14.01,2013-02-16 09:55:00,
2013-02-16 04:00:00,19.4,13.7,30.30,North,0,0.0,0.0,78,0.00,,,0.00,VWS V14.01,2013-02-16 10:00:00,
2013-02-16 04:10:00,19.2,13.5,30.29,North,0,0.0,0.2,78,0.00,,,0.00,VWS V14.01,2013-02-16 10:10:00,
2013-02-16 04:15:00,19.2,13.5,30.30,North,0,0.0,0.2,78,0.00,,,0.00,VWS V14.01,2013-02-16 10:15:00,
2013-02-16 04:20:00,19.2,13.5,30.30,North,0,0.0,0.0,78,0.00,,,0.00,VWS V14.01,2013-02-16 10:20:00,
2013-02-16 04:25:00,19.2,13.5,30.30,North,0,0.0,0.0,78,0.00,,,0.00,VWS V14.01,2013-02-16 10:25:00,
2013-02-16 04:30:00,19.0,13.3,30.29,North,0,0.0,0.0,78,0.00,,,0.00,VWS V14.01,2013-02-16 10:30:00,
2013-02-16 04:35:00,18.8,13.1,30.29,North,0,0.0,0.0,78,0.00,,,0.00,VWS V14.01,2013-02-16 10:35:00,
2013-02-16 04:40:00,18.8,13.1,30.29,North,0,0.0,0.0,78,0.00,,,0.00,VWS V14.01,2013-02-16 10:40:00,
2013-02-16 04:45:00,18.8,13.1,30.29,North,0,0.0,0.0,78,0.00,,,0.00,VWS V14.01,2013-02-16 10:45:00,
2013-02-16 04:50:00,18.7,13.0,30.29,North,0,0.0,0.0,78,0.00,,,0.00,VWS V14.01,2013-02-16 10:50:00,
2013-02-16 04:55:00,18.5,12.8,30.29,North,0,0.0,0.7,78,0.00,,,0.00,VWS V14.01,2013-02-16 10:55:00,
2013-02-16 05:00:00,18.5,12.8,30.29,North,0,0.0,0.0,78,0.00,,,0.00,VWS V14.01,2013-02-16 11:00:00,
2013-02-16 05:10:00,18.5,13.1,30.30,North,0,0.0,0.2,79,0.00,,,0.00,VWS V14.01,2013-02-16 11:10:00,
2013-02-16 05:15:00,18.5,13.1,30.30,North,0,0.0,0.0,79,0.00,,,0.00,VWS V14.01,2013-02-16 11:15:00,
2013-02-16 05:20:00,18.3,12.9,30.30,North,0,0.0,0.0,79,0.00,,,0.00,VWS V14.01,2013-02-16 11:20:00,
2013-02-16 05:25:00,18.3,12.9,30.30,North,0,0.0,0.0,79,0.00,,,0.00,VWS V14.01,2013-02-16 11:25:00,
2013-02-16 05:30:00,18.1,12.7,30.30,North,0,0.0,0.2,79,0.00,,,0.00,VWS V14.01,2013-02-16 11:30:00,
2013-02-16 05:35:00,18.1,12.7,30.30,North,0,0.0,0.0,79,0.00,,,0.00,VWS V14.01,2013-02-16 11:35:00,
2013-02-16 05:40:00,17.9,12.2,30.30,North,0,0.0,0.0,78,0.00,,,0.00,VWS V14.01,2013-02-16 11:40:00,
2013-02-16 05:45:00,17.6,11.9,30.30,North,0,0.0,0.0,78,0.00,,,0.00,VWS V14.01,2013-02-16 11:45:00,
2013-02-16 05:50:00,17.4,12.0,30.30,North,0,0.0,0.0,79,0.00,,,0.00,VWS V14.01,2013-02-16 11:50:00,
2013-02-16 05:55:00,17.4,12.0,30.30,North,0,0.0,0.0,79,0.00,,,0.00,VWS V14.01,2013-02-16 11:55:00,
2013-02-16 06:01:00,17.4,12.0,30.30,North,0,0.0,0.0,79,0.00,,,0.00,VWS V14.01,2013-02-16 12:01:00,
2013-02-16 06:10:00,17.0,11.6,30.29,North,0,0.0,0.0,79,0.00,,,0.00,VWS V14.01,2013-02-16 12:10:00,
2013-02-16 06:15:00,16.9,11.5,30.29,North,0,0.0,0.0,79,0.00,,,0.00,VWS V14.01,2013-02-16 12:15:00,
2013-02-16 06:20:00,16.7,11.3,30.29,North,0,0.0,0.0,79,0.00,,,0.00,VWS V14.01,2013-02-16 12:20:00,
2013-02-16 06:25:00,16.7,11.3,30.29,North,0,0.0,0.0,79,0.00,,,0.00,VWS V14.01,2013-02-16 12:25:00,
2013-02-16 06:30:00,16.3,10.9,30.29,North,0,0.0,0.0,79,0.00,,,0.00,VWS V14.01,2013-02-16 12:30:00,
2013-02-16 06:35:00,16.3,10.9,30.29,North,0,0.0,0.0,79,0.00,,,0.00,VWS V14.01,2013-02-16 12:35:00,
2013-02-16 06:40:00,16.1,10.8,30.29,North,0,0.0,0.0,79,0.00,,,0.00,VWS V14.01,2013-02-16 12:40:00,
2013-02-16 06:45:00,16.0,10.6,30.29,North,0,0.0,0.0,79,0.00,,,0.00,VWS V14.01,2013-02-16 12:45:00,
2013-02-16 06:50:00,16.0,10.6,30.29,North,0,0.0,0.0,79,0.00,,,0.00,VWS V14.01,2013-02-16 12:50:00,
2013-02-16 06:55:00,15.8,10.5,30.29,North,0,0.0,0.0,79,0.00,,,0.00,VWS V14.01,2013-02-16 12:55:00,
2013-02-16 07:01:00,15.8,10.5,30.30,North,0,0.0,0.0,79,0.00,,,0.00,VWS V14.01,2013-02-16 13:01:00,
2013-02-16 07:10:00,16.0,10.9,30.30,North,0,0.0,0.0,80,0.00,,,0.00,VWS V14.01,2013-02-16 13:10:00,
2013-02-16 07:15:00,16.0,10.9,30.30,North,0,0.0,0.0,80,0.00,,,0.00,VWS V14.01,2013-02-16 13:15:00,
2013-02-16 07:20:00,16.0,10.9,30.30,North,0,0.0,0.0,80,0.00,,,0.00,VWS V14.01,2013-02-16 13:20:00,
2013-02-16 07:25:00,16.0,10.9,30.30,North,0,0.0,0.0,80,0.00,,,0.00,VWS V14.01,2013-02-16 13:25:00,
2013-02-16 07:30:00,16.0,10.9,30.30,North,0,0.0,0.0,80,0.00,,,0.00,VWS V14.01,2013-02-16 13:30:00,
2013-02-16 07:35:00,16.0,10.9,30.30,North,0,0.0,0.0,80,0.00,,,0.00,VWS V14.01,2013-02-16 13:35:00,
2013-02-16 07:40:00,16.1,11.0,30.30,North,0,0.0,0.0,80,0.00,,,0.00,VWS V14.01,2013-02-16 13:40:00,
2013-02-16 07:45:00,16.5,11.7,30.30,WSW,248,0.0,0.4,81,0.00,,,0.00,VWS V14.01,2013-02-16 13:45:00,
2013-02-16 07:50:00,16.7,11.9,30.30,WSW,248,0.0,0.4,81,0.00,,,0.00,VWS V14.01,2013-02-16 13:50:00,
2013-02-16 07:55:00,17.4,12.9,30.30,WSW,248,0.0,0.0,82,0.00,,,0.00,VWS V14.01,2013-02-16 13:55:00,
2013-02-16 08:01:00,17.9,13.4,30.30,WSW,248,0.0,0.0,82,0.00,,,0.00,VWS V14.01,2013-02-16 14:01:00,
2013-02-16 08:10:00,19.0,14.7,30.31,West,270,0.2,0.2,83,0.00,,,0.00,VWS V14.01,2013-02-16 14:10:00,
2013-02-16 08:15:00,19.6,15.3,30.31,West,270,0.0,0.2,83,0.00,,,0.00,VWS V14.01,2013-02-16 14:15:00,
2013-02-16 08:20:00,19.9,15.3,30.30,West,270,0.0,0.0,82,0.00,,,0.00,VWS V14.01,2013-02-16 14:20:00,
2013-02-16 08:25:00,20.3,15.7,30.30,West,270,0.0,0.0,82,0.00,,,0.00,VWS V14.01,2013-02-16 14:25:00,
2013-02-16 08:30:00,20.3,15.7,30.31,West,270,0.0,0.0,82,0.00,,,0.00,VWS V14.01,2013-02-16 14:30:00,
2013-02-16 08:35:00,20.3,15.7,30.30,West,270,0.0,0.0,82,0.00,,,0.00,VWS V14.01,2013-02-16 14:35:00,
2013-02-16 08:40:00,20.3,15.7,30.30,West,270,0.0,0.0,82,0.00,,,0.00,VWS V14.01,2013-02-16 14:40:00,
2013-02-16 08:45:00,20.5,15.6,30.29,West,270,0.0,0.0,81,0.00,,,0.00,VWS V14.01,2013-02-16 14:45:00,
2013-02-16 08:50:00,20.5,15.6,30.29,West,270,0.0,0.0,81,0.00,,,0.00,VWS V14.01,2013-02-16 14:50:00,
2013-02-16 08:55:00,20.6,15.7,30.29,SSW,202,0.0,0.0,81,0.00,,,0.00,VWS V14.01,2013-02-16 14:55:00,
2013-02-16 09:01:00,21.0,16.1,30.29,SSW,202,0.0,0.0,81,0.00,,,0.00,VWS V14.01,2013-02-16 15:01:00,
2013-02-16 09:10:00,21.5,16.3,30.28,SSW,202,0.0,0.0,80,0.00,,,0.00,VWS V14.01,2013-02-16 15:10:00,
2013-02-16 09:15:00,21.9,16.7,30.28,SSW,202,0.2,0.7,80,0.00,,,0.00,VWS V14.01,2013-02-16 15:15:00,
2013-02-16 09:20:00,22.3,17.4,30.28,SSW,202,1.1,1.1,81,0.00,,,0.00,VWS V14.01,2013-02-16 15:20:00,
2013-02-16 09:25:00,22.6,17.4,30.28,SSW,202,0.0,1.1,80,0.00,,,0.00,VWS V14.01,2013-02-16 15:25:00,
2013-02-16 09:31:00,23.2,18.0,30.28,SSW,202,0.0,0.4,80,0.00,,,0.00,VWS V14.01,2013-02-16 15:31:00,
2013-02-16 09:40:00,24.2,18.6,30.28,South,180,0.0,1.1,79,0.00,,,0.00,VWS V14.01,2013-02-16 15:40:00,
2013-02-16 09:45:00,24.4,18.5,30.28,South,180,0.0,0.7,78,0.00,,,0.00,VWS V14.01,2013-02-16 15:45:00,
2013-02-16 09:50:00,24.8,18.6,30.28,South,180,0.0,0.4,77,0.00,,,0.00,VWS V14.01,2013-02-16 15:50:00,
2013-02-16 09:55:00,25.3,19.1,30.28,South,180,0.4,0.9,77,0.00,,,0.00,VWS V14.01,2013-02-16 15:55:00,
2013-02-16 10:01:00,25.9,19.4,30.28,South,180,0.4,0.4,76,0.01,,,0.01,VWS V14.01,2013-02-16 16:01:00,
2013-02-16 10:10:00,26.6,20.1,30.28,South,180,1.1,1.1,76,0.02,,,0.02,VWS V14.01,2013-02-16 16:10:00,
2013-02-16 10:15:00,27.1,20.2,30.28,WSW,248,1.8,1.8,75,0.02,,CLR,0.02,VWS V14.01,2013-02-16 16:15:00,
2013-02-16 10:20:00,27.7,20.8,30.27,WSW,248,0.7,1.8,75,0.03,,CLR,0.03,VWS V14.01,2013-02-16 16:20:00,
2013-02-16 10:25:00,28.2,21.0,30.27,SW,225,1.1,2.2,74,0.03,,CLR,0.03,VWS V14.01,2013-02-16 16:25:00,
2013-02-16 10:30:00,28.6,21.1,30.28,SSW,202,2.5,2.5,73,0.03,,CLR,0.03,VWS V14.01,2013-02-16 16:30:00,
2013-02-16 10:35:00,28.6,21.1,30.27,South,180,0.0,3.8,73,0.04,,CLR,0.04,VWS V14.01,2013-02-16 16:35:00,
2013-02-16 10:40:00,28.9,21.4,30.27,NNW,338,0.7,1.8,73,0.04,,CLR,0.04,VWS V14.01,2013-02-16 16:40:00,
2013-02-16 10:45:00,29.5,21.9,30.27,SSW,202,2.5,3.8,73,0.04,,CLR,0.04,VWS V14.01,2013-02-16 16:45:00,
2013-02-16 10:50:00,29.5,21.6,30.27,SSW,202,1.1,4.0,72,0.04,,CLR,0.04,VWS V14.01,2013-02-16 16:50:00,
2013-02-16 10:55:00,29.6,21.4,30.27,East,90,0.7,2.7,71,0.05,,CLR,0.05,VWS V14.01,2013-02-16 16:55:00,
2013-02-16 11:01:00,29.6,21.4,30.27,South,180,3.4,3.4,71,0.04,,CLR,0.05,VWS V14.01,2013-02-16 17:01:00,
2013-02-16 11:10:00,30.0,21.4,30.27,SW,225,5.4,5.4,70,0.04,,CLR,0.05,VWS V14.01,2013-02-16 17:10:00,
2013-02-16 11:15:00,30.4,21.8,30.26,SW,225,0.4,5.4,70,0.03,,FEW017,0.05,VWS V14.01,2013-02-16 17:15:00,
2013-02-16 11:20:00,30.9,22.3,30.26,ESE,112,2.0,2.7,70,0.03,,FEW017,0.05,VWS V14.01,2013-02-16 17:20:00,
2013-02-16 11:25:00,31.1,22.5,30.26,WSW,248,6.7,6.7,70,0.02,,FEW017,0.05,VWS V14.01,2013-02-16 17:25:00,
2013-02-16 11:30:00,31.3,22.7,30.26,NNW,338,0.2,6.7,70,0.02,,FEW017,0.05,VWS V14.01,2013-02-16 17:30:00,
2013-02-16 11:35:00,31.8,22.8,30.26,SSW,202,4.5,4.5,69,0.02,,FEW017,0.05,VWS V14.01,2013-02-16 17:35:00,
2013-02-16 11:40:00,31.6,23.0,30.26,NW,315,0.2,4.7,70,0.01,,FEW017,0.05,VWS V14.01,2013-02-16 17:40:00,
2013-02-16 11:45:00,31.6,22.6,30.25,SW,225,2.0,6.5,69,0.01,,FEW017,0.05,VWS V14.01,2013-02-16 17:45:00,
2013-02-16 11:50:00,31.6,22.6,30.25,West,270,1.8,2.7,69,0.01,,FEW017,0.05,VWS V14.01,2013-02-16 17:50:00,
2013-02-16 11:55:00,31.6,22.3,30.25,West,270,4.5,4.5,68,0.01,,FEW017,0.05,VWS V14.01,2013-02-16 17:55:00,
2013-02-16 12:01:00,31.8,22.8,30.24,SSE,158,0.9,1.1,69,0.00,,FEW017,0.05,VWS V14.01,2013-02-16 18:01:00,
2013-02-16 12:10:00,32.3,22.9,30.24,SW,225,2.5,5.1,68,0.00,,FEW017,0.05,VWS V14.01,2013-02-16 18:10:00,
2013-02-16 12:15:00,32.5,23.1,30.23,WSW,248,4.3,4.3,68,0.00,,SCT021,0.05,VWS V14.01,2013-02-16 18:15:00,
2013-02-16 12:20:00,32.5,22.8,30.23,SW,225,4.0,4.3,67,0.00,,SCT021,0.05,VWS V14.01,2013-02-16 18:20:00,
2013-02-16 12:25:00,32.5,22.8,30.23,ESE,112,4.5,4.5,67,0.00,,SCT021,0.05,VWS V14.01,2013-02-16 18:25:00,
2013-02-16 12:30:00,32.3,22.6,30.22,NW,315,2.0,4.5,67,0.00,,SCT021,0.05,VWS V14.01,2013-02-16 18:30:00,
2013-02-16 12:40:00,32.5,22.8,30.21,WSW,248,2.7,4.0,67,0.00,,SCT021,0.05,VWS V14.01,2013-02-16 18:40:00,
2013-02-16 12:45:00,32.3,22.6,30.20,SSW,202,2.7,2.7,67,0.00,,SCT021,0.05,VWS V14.01,2013-02-16 18:45:00,
2013-02-16 12:50:00,32.2,22.5,30.20,WNW,292,0.9,3.6,67,0.00,,SCT021,0.05,VWS V14.01,2013-02-16 18:50:00,
2013-02-16 12:55:00,32.3,22.6,30.20,SSW,202,2.9,3.4,67,0.00,,SCT021,0.05,VWS V14.01,2013-02-16 18:55:00,
2013-02-16 13:01:00,32.3,22.6,30.20,WSW,248,1.3,2.5,67,0.00,,SCT021,0.05,VWS V14.01,2013-02-16 19:01:00,
2013-02-16 13:10:00,32.3,22.2,30.19,ESE,112,6.3,6.3,66,0.00,,SCT021,0.05,VWS V14.01,2013-02-16 19:10:00,
2013-02-16 13:15:00,32.0,21.9,30.18,SE,135,4.0,6.3,66,0.00,,OVC095,0.05,VWS V14.01,2013-02-16 19:15:00,
2013-02-16 13:20:00,31.8,21.8,30.18,ESE,112,1.6,4.0,66,0.00,,OVC095,0.05,VWS V14.01,2013-02-16 19:20:00,
2013-02-16 13:25:00,31.8,21.4,30.18,SSW,202,2.2,3.6,65,0.00,,OVC095,0.05,VWS V14.01,2013-02-16 19:25:00,
2013-02-16 13:30:00,31.6,21.2,30.18,SSW,202,2.9,3.4,65,0.00,,OVC095,0.05,VWS V14.01,2013-02-16 19:30:00,
2013-02-16 13:35:00,31.4,21.0,30.17,ESE,112,2.5,5.1,65,0.00,,OVC095,0.05,VWS V14.01,2013-02-16 19:35:00,
2013-02-16 13:40:00,31.4,21.0,30.17,SSW,202,2.5,5.1,65,0.00,,OVC095,0.05,VWS V14.01,2013-02-16 19:40:00,
2013-02-16 13:45:00,31.3,20.9,30.17,SW,225,1.8,3.8,65,0.00,,OVC095,0.05,VWS V14.01,2013-02-16 19:45:00,
2013-02-16 13:50:00,31.1,20.7,30.17,SW,225,2.5,2.5,65,0.00,,OVC095,0.05,VWS V14.01,2013-02-16 19:50:00,
2013-02-16 13:55:00,31.1,20.7,30.16,East,90,3.8,4.3,65,0.00,,OVC095,0.05,VWS V14.01,2013-02-16 19:55:00,
2013-02-16 14:01:00,31.3,20.9,30.16,SE,135,0.4,2.9,65,0.00,,OVC095,0.05,VWS V14.01,2013-02-16 20:01:00,
2013-02-16 14:10:00,31.4,21.0,30.16,West,270,2.9,4.3,65,0.00,,OVC095,0.05,VWS V14.01,2013-02-16 20:10:00,
2013-02-16 14:15:00,31.6,21.2,30.16,South,180,3.6,4.7,65,0.00,,OVC080,0.05,VWS V14.01,2013-02-16 20:15:00,
2013-02-16 14:20:00,31.4,21.0,30.16,SSE,158,0.4,4.9,65,0.00,,OVC080,0.05,VWS V14.01,2013-02-16 20:20:00,
2013-02-16 14:25:00,31.4,20.6,30.15,WSW,248,1.1,4.5,64,0.00,,OVC080,0.05,VWS V14.01,2013-02-16 20:25:00,
2013-02-16 14:30:00,31.3,20.5,30.15,SSE,158,4.0,4.0,64,0.00,,OVC080,0.05,VWS V14.01,2013-02-16 20:30:00,
2013-02-16 14:35:00,31.3,20.5,30.15,South,180,1.1,4.0,64,0.00,,OVC080,0.05,VWS V14.01,2013-02-16 20:35:00,
2013-02-16 14:40:00,31.3,20.5,30.15,SSE,158,4.3,4.9,64,0.00,,OVC080,0.05,VWS V14.01,2013-02-16 20:40:00,
2013-02-16 14:45:00,31.1,20.4,30.15,South,180,1.8,4.3,64,0.00,,OVC080,0.05,VWS V14.01,2013-02-16 20:45:00,
2013-02-16 14:50:00,31.1,20.4,30.15,South,180,3.4,4.3,64,0.00,,OVC080,0.05,VWS V14.01,2013-02-16 20:50:00,
2013-02-16 14:55:00,31.3,20.5,30.15,SE,135,3.4,3.4,64,0.00,,OVC080,0.05,VWS V14.01,2013-02-16 20:55:00,
2013-02-16 15:01:00,31.1,20.4,30.15,SW,225,0.4,2.0,64,0.00,,OVC080,0.05,VWS V14.01,2013-02-16 21:01:00,
2013-02-16 15:10:00,31.1,20.4,30.15,SSW,202,2.5,4.9,64,0.00,,OVC080,0.05,VWS V14.01,2013-02-16 21:10:00,
2013-02-16 15:15:00,31.1,20.7,30.15,SW,225,2.2,2.7,65,0.00,,OVC060,0.05,VWS V14.01,2013-02-16 21:15:00,
2013-02-16 15:20:00,31.1,20.7,30.15,SSW,202,2.0,2.5,65,0.00,,OVC060,0.05,VWS V14.01,2013-02-16 21:20:00,
2013-02-16 15:25:00,31.1,20.7,30.15,SW,225,0.4,5.6,65,0.00,,OVC060,0.05,VWS V14.01,2013-02-16 21:25:00,
2013-02-16 15:30:00,31.1,20.7,30.14,SE,135,2.2,5.4,65,0.00,,OVC060,0.05,VWS V14.01,2013-02-16 21:30:00,
2013-02-16 15:35:00,31.1,20.7,30.14,SW,225,1.1,4.0,65,0.00,,OVC060,0.05,VWS V14.01,2013-02-16 21:35:00,
2013-02-16 15:40:00,31.1,20.7,30.15,WSW,248,0.9,1.8,65,0.00,,OVC060,0.05,VWS V14.01,2013-02-16 21:40:00,
2013-02-16 15:45:00,31.3,20.9,30.14,SE,135,1.3,3.4,65,0.00,,OVC060,0.05,VWS V14.01,2013-02-16 21:45:00,
2013-02-16 15:50:00,31.3,20.9,30.15,WSW,248,2.5,3.4,65,0.00,,OVC060,0.05,VWS V14.01,2013-02-16 21:50:00,
2013-02-16 15:55:00,31.3,20.9,30.15,NW,315,1.1,2.5,65,0.00,,OVC060,0.05,VWS V14.01,2013-02-16 21:55:00,
2013-02-16 16:01:00,31.4,21.0,30.15,NE,45,1.1,1.1,65,0.00,,OVC060,0.05,VWS V14.01,2013-02-16 22:01:00,
2013-02-16 16:10:00,31.4,21.0,30.14,South,180,2.2,4.0,65,0.00,,OVC060,0.05,VWS V14.01,2013-02-16 22:10:00,
2013-02-16 16:15:00,31.6,21.2,30.14,SW,225,2.0,2.5,65,0.00,,OVC070,0.05,VWS V14.01,2013-02-16 22:15:00,
2013-02-16 16:20:00,31.8,21.4,30.14,SSE,158,0.4,2.0,65,0.00,,OVC070,0.05,VWS V14.01,2013-02-16 22:20:00,
2013-02-16 16:25:00,31.8,21.4,30.14,SE,135,3.6,4.0,65,0.00,,OVC070,0.05,VWS V14.01,2013-02-16 22:25:00,
2013-02-16 16:30:00,31.8,21.0,30.14,SSW,202,2.2,4.0,64,0.00,,OVC070,0.05,VWS V14.01,2013-02-16 22:30:00,
2013-02-16 16:35:00,31.8,21.0,30.14,SSW,202,3.8,4.0,64,0.00,,OVC070,0.05,VWS V14.01,2013-02-16 22:35:00,
2013-02-16 16:40:00,31.8,21.0,30.13,South,180,2.7,4.0,64,0.00,,OVC070,0.05,VWS V14.01,2013-02-16 22:40:00,
2013-02-16 16:45:00,31.8,21.0,30.13,South,180,4.7,4.7,64,0.00,,OVC070,0.05,VWS V14.01,2013-02-16 22:45:00,
2013-02-16 16:50:00,32.0,20.9,30.13,SSE,158,4.0,6.9,63,0.00,,OVC070,0.05,VWS V14.01,2013-02-16 22:50:00,
2013-02-16 16:55:00,32.0,20.9,30.13,SSW,202,0.7,4.0,63,0.00,,OVC070,0.05,VWS V14.01,2013-02-16 22:55:00,
2013-02-16 17:02:00,32.2,20.7,30.13,SSW,202,4.0,4.0,62,0.00,,OVC070,0.05,VWS V14.01,2013-02-16 23:02:00,
2013-02-16 17:10:00,32.2,20.7,30.13,SSE,158,2.9,3.8,62,0.00,,OVC065,0.05,VWS V14.01,2013-02-16 23:10:00,
2013-02-16 17:15:00,32.0,20.5,30.13,SSE,158,1.1,2.9,62,0.00,,OVC065,0.05,VWS V14.01,2013-02-16 23:15:00,
2013-02-16 17:20:00,32.2,20.3,30.14,SE,135,3.8,4.0,61,0.00,,OVC065,0.05,VWS V14.01,2013-02-16 23:20:00,
2013-02-16 17:25:00,32.0,19.7,30.14,SSW,202,3.6,3.8,60,0.00,,OVC065,0.05,VWS V14.01,2013-02-16 23:25:00,
2013-02-16 17:30:00,32.0,19.7,30.13,SW,225,5.4,5.4,60,0.00,,OVC065,0.05,VWS V14.01,2013-02-16 23:30:00,
2013-02-16 17:35:00,32.0,19.7,30.13,SE,135,2.5,5.4,60,0.00,,OVC065,0.05,VWS V14.01,2013-02-16 23:35:00,
2013-02-16 17:40:00,32.0,19.7,30.13,SE,135,2.2,2.5,60,0.00,,OVC065,0.05,VWS V14.01,2013-02-16 23:40:00,
2013-02-16 17:45:00,32.0,19.7,30.13,SE,135,0.2,2.9,60,0.00,,OVC065,0.05,VWS V14.01,2013-02-16 23:45:00,
2013-02-16 17:50:00,31.8,19.5,30.13,SE,135,1.3,1.3,60,0.00,,OVC065,0.05,VWS V14.01,2013-02-16 23:50:00,
2013-02-16 17:55:00,32.0,19.3,30.13,SW,225,2.0,2.0,59,0.00,,OVC065,0.05,VWS V14.01,2013-02-16 23:55:00,
2013-02-16 18:02:00,31.8,19.1,30.13,SE,135,1.1,1.1,59,0.00,,OVC065,0.05,VWS V14.01,2013-02-17 00:02:00,
2013-02-16 18:10:00,31.8,19.1,30.13,SE,135,1.8,3.4,59,0.00,,OVC065,0.05,VWS V14.01,2013-02-17 00:10:00,
2013-02-16 18:15:00,31.8,19.1,30.13,SE,135,1.3,1.8,59,0.00,,OVC065,0.05,VWS V14.01,2013-02-17 00:15:00,
2013-02-16 18:20:00,31.8,19.1,30.13,SSE,158,1.1,1.3,59,0.00,,OVC065,0.05,VWS V14.01,2013-02-17 00:20:00,
2013-02-16 18:25:00,31.8,18.7,30.13,SE,135,2.9,2.9,58,0.00,,OVC065,0.05,VWS V14.01,2013-02-17 00:25:00,
2013-02-16 18:30:00,31.8,18.7,30.12,SE,135,1.3,2.9,58,0.00,,OVC065,0.05,VWS V14.01,2013-02-17 00:30:00,
2013-02-16 18:40:00,31.8,18.7,30.13,SSE,158,0.7,1.1,58,0.00,,OVC065,0.05,VWS V14.01,2013-02-17 00:40:00,
2013-02-16 18:45:00,31.8,18.7,30.13,SSE,158,1.8,1.8,58,0.00,,OVC065,0.05,VWS V14.01,2013-02-17 00:45:00,
2013-02-16 18:50:00,31.8,18.7,30.12,ESE,112,1.8,1.8,58,0.00,,OVC065,0.05,VWS V14.01,2013-02-17 00:50:00,
2013-02-16 18:55:00,31.8,18.7,30.12,SSE,158,0.7,4.0,58,0.00,,OVC065,0.05,VWS V14.01,2013-02-17 00:55:00,
2013-02-16 19:02:00,31.8,18.7,30.12,ENE,68,1.6,1.6,58,0.00,,OVC065,0.05,VWS V14.01,2013-02-17 01:02:00,
2013-02-16 19:10:00,31.8,19.1,30.12,SSE,158,1.8,2.5,59,0.00,,OVC065,0.05,VWS V14.01,2013-02-17 01:10:00,
2013-02-16 19:15:00,31.8,19.1,30.13,SE,135,1.3,2.5,59,0.00,,OVC065,0.05,VWS V14.01,2013-02-17 01:15:00,
2013-02-16 19:20:00,31.8,19.1,30.12,SE,135,1.3,1.8,59,0.00,,OVC065,0.05,VWS V14.01,2013-02-17 01:20:00,
2013-02-16 19:25:00,31.8,19.1,30.12,West,270,0.0,2.2,59,0.00,,OVC065,0.05,VWS V14.01,2013-02-17 01:25:00,
2013-02-16 19:30:00,31.8,19.1,30.12,SE,135,1.1,2.9,59,0.00,,OVC065,0.05,VWS V14.01,2013-02-17 01:30:00,
2013-02-16 19:35:00,31.8,19.1,30.12,South,180,3.4,3.4,59,0.00,,OVC065,0.05,VWS V14.01,2013-02-17 01:35:00,
2013-02-16 19:40:00,31.8,19.1,30.12,SE,135,1.6,3.4,59,0.00,,OVC065,0.05,VWS V14.01,2013-02-17 01:40:00,
2013-02-16 19:45:00,31.8,19.1,30.11,SE,135,0.4,4.5,59,0.00,,OVC065,0.05,VWS V14.01,2013-02-17 01:45:00,
2013-02-16 19:50:00,31.8,19.1,30.11,SE,135,1.8,1.8,59,0.00,,OVC065,0.05,VWS V14.01,2013-02-17 01:50:00,
2013-02-16 19:55:00,31.8,19.1,30.11,ESE,112,1.8,1.8,59,0.00,,OVC065,0.05,VWS V14.01,2013-02-17 01:55:00,
2013-02-16 20:02:00,31.8,19.1,30.11,ESE,112,2.9,2.9,59,0.00,,OVC065,0.05,VWS V14.01,2013-02-17 02:02:00,
2013-02-16 20:10:00,32.0,19.3,30.11,East,90,1.8,3.1,59,0.00,,OVC065,0.05,VWS V14.01,2013-02-17 02:10:00,
2013-02-16 20:15:00,32.0,19.3,30.11,SSW,202,1.1,1.8,59,0.00,,OVC060,0.05,VWS V14.01,2013-02-17 02:15:00,
2013-02-16 20:20:00,32.0,19.3,30.11,South,180,0.4,1.8,59,0.00,,OVC060,0.05,VWS V14.01,2013-02-17 02:20:00,
2013-02-16 20:25:00,32.0,19.3,30.11,SSE,158,2.2,2.2,59,0.00,,OVC060,0.05,VWS V14.01,2013-02-17 02:25:00,
2013-02-16 20:30:00,31.8,19.1,30.10,SE,135,1.8,3.1,59,0.00,,OVC060,0.05,VWS V14.01,2013-02-17 02:30:00,
2013-02-16 20:35:00,32.0,19.3,30.11,ESE,112,1.3,2.5,59,0.00,,OVC060,0.05,VWS V14.01,2013-02-17 02:35:00,
2013-02-16 20:40:00,32.0,19.3,30.11,WSW,248,1.1,2.5,59,0.00,,OVC060,0.05,VWS V14.01,2013-02-17 02:40:00,
2013-02-16 20:45:00,32.0,19.3,30.10,ESE,112,2.0,3.8,59,0.00,,OVC060,0.05,VWS V14.01,2013-02-17 02:45:00,
2013-02-16 20:50:00,32.0,19.3,30.10,SE,135,2.7,2.9,59,0.00,,OVC060,0.05,VWS V14.01,2013-02-17 02:50:00,
2013-02-16 20:55:00,32.0,19.7,30.10,SE,135,2.7,3.4,60,0.00,,OVC060,0.05,VWS V14.01,2013-02-17 02:55:00,
2013-02-16 21:02:00,31.8,19.1,30.10,ESE,112,2.7,2.7,59,0.00,,OVC060,0.05,VWS V14.01,2013-02-17 03:02:00,
2013-02-16 21:10:00,31.8,19.5,30.10,SE,135,2.2,6.0,60,0.00,,OVC060,0.05,VWS V14.01,2013-02-17 03:10:00,
2013-02-16 21:15:00,31.8,19.5,30.10,SE,135,3.6,3.8,60,0.00,,OVC055,0.05,VWS V14.01,2013-02-17 03:15:00,
2013-02-16 21:20:00,31.8,19.5,30.10,SSW,202,0.9,4.0,60,0.00,,OVC055,0.05,VWS V14.01,2013-02-17 03:20:00,
2013-02-16 21:25:00,31.8,19.5,30.10,SE,135,1.8,1.8,60,0.00,,OVC055,0.05,VWS V14.01,2013-02-17 03:25:00,
2013-02-16 21:30:00,31.8,19.5,30.10,SSE,158,2.5,3.1,60,0.00,,OVC055,0.05,VWS V14.01,2013-02-17 03:30:00,
2013-02-16 21:35:00,31.8,19.5,30.10,SSE,158,1.6,5.8,60,0.00,,OVC055,0.05,VWS V14.01,2013-02-17 03:35:00,
2013-02-16 21:40:00,31.8,19.5,30.10,SE,135,2.2,3.4,60,0.00,,OVC055,0.05,VWS V14.01,2013-02-17 03:40:00,
2013-02-16 21:45:00,31.8,19.5,30.10,SSW,202,1.3,3.4,60,0.00,,OVC055,0.05,VWS V14.01,2013-02-17 03:45:00,
2013-02-16 21:50:00,31.8,19.9,30.10,SSE,158,0.9,1.8,61,0.00,,OVC055,0.05,VWS V14.01,2013-02-17 03:50:00,
2013-02-16 21:55:00,31.8,19.9,30.10,ESE,112,0.7,2.2,61,0.00,,OVC055,0.05,VWS V14.01,2013-02-17 03:55:00,
2013-02-16 22:02:00,31.8,19.9,30.10,SE,135,2.9,4.0,61,0.00,,OVC055,0.05,VWS V14.01,2013-02-17 04:02:00,
2013-02-16 22:10:00,31.8,19.9,30.10,SSE,158,1.1,1.8,61,0.00,,OVC055,0.05,VWS V14.01,2013-02-17 04:10:00,
2013-02-16 22:15:00,31.8,19.9,30.09,SE,135,1.8,3.1,61,0.00,,OVC060,0.05,VWS V14.01,2013-02-17 04:15:00,
2013-02-16 22:20:00,31.8,19.9,30.09,ESE,112,2.7,3.1,61,0.00,,OVC060,0.05,VWS V14.01,2013-02-17 04:20:00,
2013-02-16 22:25:00,31.6,19.7,30.09,SE,135,1.8,4.3,61,0.00,,OVC060,0.05,VWS V14.01,2013-02-17 04:25:00,
2013-02-16 22:30:00,31.6,19.7,30.09,SE,135,1.6,1.8,61,0.00,,OVC060,0.05,VWS V14.01,2013-02-17 04:30:00,
2013-02-16 22:35:00,31.6,19.7,30.09,SE,135,1.8,3.4,61,0.00,,OVC060,0.05,VWS V14.01,2013-02-17 04:35:00,
2013-02-16 22:40:00,31.6,19.7,30.09,WSW,248,1.1,3.4,61,0.00,,OVC060,0.05,VWS V14.01,2013-02-17 04:40:00,
2013-02-16 22:45:00,31.6,19.7,30.09,SE,135,4.0,4.0,61,0.00,,OVC060,0.05,VWS V14.01,2013-02-17 04:45:00,
2013-02-16 22:50:00,31.6,19.7,30.09,SE,135,0.9,4.0,61,0.00,,OVC060,0.05,VWS V14.01,2013-02-17 04:50:00,
2013-02-16 22:55:00,31.6,19.7,30.09,SE,135,0.4,3.1,61,0.00,,OVC060,0.05,VWS V14.01,2013-02-17 04:55:00,
2013-02-16 23:00:00,31.6,19.7,30.09,SW,225,1.1,2.7,61,0.00,,OVC060,0.05,VWS V14.01,2013-02-17 05:00:00,
2013-02-16 23:02:00,31.6,19.7,30.09,SE,135,1.8,1.8,61,0.00,,OVC060,0.05,VWS V14.01,2013-02-17 05:02:00,
2013-02-16 23:10:00,31.6,19.7,30.08,SW,225,1.8,3.6,61,0.00,,OVC060,0.05,VWS V14.01,2013-02-17 05:10:00,
2013-02-16 23:15:00,31.6,19.7,30.08,SSE,158,1.1,4.0,61,0.00,,OVC060,0.05,VWS V14.01,2013-02-17 05:15:00,
2013-02-16 23:20:00,31.6,19.7,30.08,SE,135,1.6,2.5,61,0.00,,OVC060,0.05,VWS V14.01,2013-02-17 05:20:00,
2013-02-16 23:25:00,31.6,19.7,30.08,SSE,158,2.9,3.1,61,0.00,,OVC060,0.05,VWS V14.01,2013-02-17 05:25:00,
2013-02-16 23:30:00,31.6,19.7,30.07,SE,135,1.8,3.8,61,0.00,,OVC060,0.05,VWS V14.01,2013-02-17 05:30:00,
2013-02-16 23:35:00,31.6,19.7,30.07,SE,135,3.4,3.4,61,0.00,,OVC060,0.05,VWS V14.01,2013-02-17 05:35:00,
2013-02-16 23:40:00,31.6,20.1,30.07,SW,225,1.3,3.4,62,0.00,,OVC060,0.05,VWS V14.01,2013-02-17 05:40:00,
2013-02-16 23:45:00,31.6,20.1,30.07,South,180,0.9,1.3,62,0.00,,OVC060,0.05,VWS V14.01,2013-02-17 05:45:00,
2013-02-16 23:50:00,31.6,20.1,30.07,SSE,158,1.3,2.2,62,0.00,,OVC060,0.05,VWS V14.01,2013-02-17 05:50:00,
2013-02-16 23:55:00,31.6,20.1,30.07,SSE,158,1.1,1.6,62,0.00,,OVC060,0.05,VWS V14.01,2013-02-17 05:55:00,